createdAt,value
2024-04-24T00:07:38.479Z,32.20
2024-04-24T00:17:41.157Z,28.40
2024-04-24T00:27:43.879Z,26.30
2024-04-24T00:37:46.562Z,26.00
2024-04-24T00:47:49.168Z,24.60
2024-04-24T00:57:51.880Z,24.00
2024-04-24T01:07:54.491Z,25.00
2024-04-24T01:17:57.325Z,27.90
2024-04-24T01:28:00.025Z,23.30
2024-04-24T01:38:02.653Z,22.00
2024-04-24T01:48:05.487Z,21.10
2024-04-24T01:58:08.068Z,20.60
2024-04-24T02:08:10.628Z,20.10
2024-04-24T02:18:13.342Z,19.90
2024-04-24T02:28:16.434Z,19.40
2024-04-24T02:38:19.091Z,19.10
2024-04-24T02:48:21.786Z,18.60
2024-04-24T02:58:24.366Z,18.20
2024-04-24T03:08:26.996Z,17.90
2024-04-24T03:18:29.733Z,17.40
2024-04-24T03:28:32.329Z,16.80
2024-04-24T03:38:34.895Z,16.80
2024-04-24T03:48:40.246Z,16.60
2024-04-24T03:58:46.658Z,16.30
2024-04-24T04:08:49.230Z,16.10
2024-04-24T04:18:52.301Z,16.00
2024-04-24T04:28:54.991Z,15.80
2024-04-24T04:38:57.600Z,15.70
2024-04-24T04:49:00.177Z,15.50
2024-04-24T04:59:02.796Z,15.50
2024-04-24T05:09:05.483Z,15.40
2024-04-24T05:19:08.163Z,15.20
2024-04-24T05:29:10.895Z,15.10
2024-04-24T05:39:13.477Z,15.10
2024-04-24T05:49:16.032Z,15.10
2024-04-24T05:59:18.656Z,15.10
2024-04-24T06:09:21.288Z,14.80
2024-04-24T06:19:24.078Z,14.70
2024-04-24T06:29:26.701Z,14.50
2024-04-24T06:39:29.333Z,14.40
2024-04-24T06:49:31.937Z,14.20
2024-04-24T06:59:34.719Z,14.20
2024-04-24T07:09:37.324Z,14.20
2024-04-24T07:19:39.917Z,14.20
2024-04-24T07:29:42.549Z,14.00
2024-04-24T07:39:45.093Z,13.80
2024-04-24T07:49:47.647Z,13.70
2024-04-24T07:59:50.204Z,13.50
2024-04-24T08:09:52.796Z,13.40
2024-04-24T08:19:55.523Z,13.40
2024-04-24T08:29:58.146Z,13.30
2024-04-24T08:40:00.824Z,13.30
2024-04-24T08:50:03.486Z,13.10
2024-04-24T09:00:06.218Z,12.90
2024-04-24T09:10:09.290Z,12.80
2024-04-24T09:20:11.983Z,12.90
2024-04-24T09:30:14.671Z,13.00
2024-04-24T09:40:17.239Z,12.90
2024-04-24T09:50:20.091Z,12.90
2024-04-24T10:00:22.746Z,13.10
2024-04-24T10:10:25.391Z,13.20
2024-04-24T10:20:28.446Z,13.20
2024-04-24T10:30:31.241Z,13.10
2024-04-24T10:40:33.776Z,13.10
2024-04-24T10:50:36.445Z,13.00
2024-04-24T11:00:39.147Z,12.70
2024-04-24T11:10:41.821Z,12.70
2024-04-24T11:20:44.822Z,12.60
2024-04-24T11:30:47.419Z,12.70
2024-04-24T11:40:50.031Z,12.60
2024-04-24T11:50:52.752Z,12.70
2024-04-24T12:00:55.403Z,12.70
2024-04-24T12:10:58.006Z,12.80
2024-04-24T12:21:02.386Z,12.70
2024-04-24T12:31:05.465Z,12.60
2024-04-24T12:41:08.186Z,12.70
2024-04-24T12:51:11.000Z,12.70
2024-04-24T13:01:13.631Z,12.60
2024-04-24T13:11:16.282Z,12.60
2024-04-24T13:21:18.971Z,12.50
2024-04-24T13:31:21.573Z,12.40
2024-04-24T13:41:24.216Z,12.30
2024-04-24T13:51:26.819Z,12.00
2024-04-24T14:01:29.422Z,12.00
2024-04-24T14:11:31.979Z,11.80
2024-04-24T14:21:34.631Z,11.80
2024-04-24T14:31:38.173Z,12.00
2024-04-24T14:41:40.922Z,12.30
2024-04-24T14:51:43.488Z,12.00
2024-04-24T15:01:46.443Z,12.00
2024-04-24T15:11:49.345Z,11.90
2024-04-24T15:21:52.196Z,11.90
2024-04-24T15:31:54.795Z,11.90
2024-04-24T15:41:57.339Z,12.00
2024-04-24T15:52:00.132Z,12.10
2024-04-24T16:02:02.770Z,12.10
2024-04-24T16:12:05.377Z,12.10
2024-04-24T16:22:07.974Z,12.00
2024-04-24T16:32:10.596Z,12.00
2024-04-24T16:42:13.285Z,11.70
2024-04-24T16:52:15.910Z,12.00
2024-04-24T17:02:18.568Z,11.80
2024-04-24T17:12:21.192Z,12.00
2024-04-24T17:22:23.767Z,12.50
2024-04-24T17:32:26.577Z,12.90
2024-04-24T17:42:29.216Z,13.00
2024-04-24T17:52:31.894Z,12.90
2024-04-24T18:02:34.493Z,12.80
2024-04-24T18:12:37.091Z,12.80
2024-04-24T18:22:39.864Z,12.80
2024-04-24T18:32:42.620Z,12.80
2024-04-24T18:42:45.317Z,12.90
2024-04-24T18:52:47.857Z,13.40
2024-04-24T19:02:50.602Z,13.50
2024-04-24T19:12:53.296Z,13.30
2024-04-24T19:22:55.903Z,13.60
2024-04-24T19:32:58.548Z,13.20
2024-04-24T19:43:01.235Z,13.10
2024-04-24T19:53:03.874Z,13.00
2024-04-24T20:03:06.563Z,12.90
2024-04-24T20:13:11.969Z,12.60
2024-04-24T20:23:15.847Z,12.70
2024-04-24T20:33:18.681Z,12.60
2024-04-24T20:43:21.347Z,12.50
2024-04-24T20:53:23.927Z,12.40
2024-04-24T21:03:26.511Z,12.20
2024-04-24T21:13:29.102Z,12.20
2024-04-24T21:23:31.741Z,12.40
2024-04-24T21:33:34.566Z,12.40
2024-04-24T21:43:37.233Z,12.20
2024-04-24T21:53:39.858Z,12.30
2024-04-24T22:03:42.528Z,12.60
2024-04-24T22:13:45.095Z,12.80
2024-04-24T22:23:47.704Z,12.70
2024-04-24T22:33:50.297Z,12.40
2024-04-24T22:43:52.830Z,12.40
2024-04-24T22:53:55.386Z,12.40
2024-04-24T23:03:58.012Z,12.60
2024-04-24T23:14:00.607Z,12.50
2024-04-24T23:24:03.358Z,12.20
2024-04-24T23:34:05.883Z,12.30
2024-04-24T23:44:08.433Z,12.40
2024-04-24T23:54:11.020Z,12.20
